RYR1SJ ESSA-LEMG
Flight info
| Callsign | RYR1SJ |
|---|---|
| Flight time | N/A |
| Altitude | 35000 |
| Route | PETEV N872 ELPAX DCT ASVAN DCT DOSUR DCT WANZA DCT GISEB/N0451F340 DCT WOODY/N0450F330 N872 MEDIL DCT KOVIN DCT DUCRA UM728 RESMI UN857 DISAK DCT DIRMO DCT ARTAX DCT BEBIX DCT LMG DCT UVELI DCT OSMOB DCT VAVIX DCT NETUK/N0458F350 N857 BAN N10 CJN L27 BLN |
| Aircraft | B738/M-SABDFGRVYL/LB2 |
Departure
| Time | N/A |
|---|---|
| Airport | Stockholm-Arlanda Airport (ESSA) |
Arrival
| Time | 2026-05-04 13:49 |
|---|---|
| Airport | Málaga-Costa del Sol Airport (LEMG) |
| Time | Latitude | Longitude | Altitude | Speed | Heading |
|---|---|---|---|---|---|
| 2026-05-04 12:35 | 42.33604 | -1.96816 | 34928 ft | 402 kts | 208° |
| 2026-05-04 12:35 | 42.28560 | -2.00174 | 34932 ft | 403 kts | 208° |
| 2026-05-04 12:36 | 42.23530 | -2.03516 | 34941 ft | 406 kts | 208° |
| 2026-05-04 12:36 | 42.18510 | -2.06830 | 34932 ft | 405 kts | 208° |
| 2026-05-04 12:37 | 42.13465 | -2.10156 | 34925 ft | 402 kts | 208° |
| 2026-05-04 12:37 | 42.08416 | -2.13487 | 34928 ft | 405 kts | 208° |
| 2026-05-04 12:38 | 42.03377 | -2.16805 | 34932 ft | 405 kts | 208° |
| 2026-05-04 12:38 | 41.98317 | -2.20134 | 34933 ft | 404 kts | 208° |
| 2026-05-04 12:39 | 41.93263 | -2.23451 | 34947 ft | 404 kts | 208° |
| 2026-05-04 12:39 | 41.88193 | -2.26770 | 34956 ft | 405 kts | 208° |
| 2026-05-04 12:40 | 41.83150 | -2.30066 | 34952 ft | 403 kts | 208° |
| 2026-05-04 12:40 | 41.78073 | -2.33380 | 34956 ft | 409 kts | 208° |
| 2026-05-04 12:41 | 41.72932 | -2.36734 | 34960 ft | 412 kts | 208° |
| 2026-05-04 12:41 | 41.67817 | -2.40059 | 34962 ft | 409 kts | 208° |
| 2026-05-04 12:42 | 41.62700 | -2.43381 | 34962 ft | 411 kts | 209° |
| 2026-05-04 12:42 | 41.57555 | -2.46712 | 34962 ft | 410 kts | 209° |
| 2026-05-04 12:43 | 41.52419 | -2.50029 | 34961 ft | 410 kts | 209° |
| 2026-05-04 12:43 | 41.47304 | -2.53335 | 34964 ft | 411 kts | 209° |
| 2026-05-04 12:44 | 41.42164 | -2.56648 | 34964 ft | 408 kts | 209° |
| 2026-05-04 12:44 | 41.37031 | -2.59936 | 34964 ft | 409 kts | 208° |
| 2026-05-04 12:45 | 41.31599 | -2.62406 | 34961 ft | 418 kts | 194° |
| 2026-05-04 12:45 | 41.25728 | -2.62629 | 34966 ft | 426 kts | 183° |
| 2026-05-04 12:46 | 41.19816 | -2.62072 | 34969 ft | 426 kts | 181° |
| 2026-05-04 12:46 | 41.13890 | -2.61434 | 34965 ft | 427 kts | 182° |
| 2026-05-04 12:47 | 41.07954 | -2.60839 | 34964 ft | 426 kts | 182° |
| 2026-05-04 12:47 | 41.02006 | -2.60283 | 34860 ft | 425 kts | 182° |
| 2026-05-04 12:48 | 40.96085 | -2.59747 | 34975 ft | 428 kts | 182° |
| 2026-05-04 12:48 | 40.90185 | -2.59213 | 34966 ft | 427 kts | 182° |
| 2026-05-04 12:49 | 40.84262 | -2.58677 | 34978 ft | 426 kts | 182° |
| 2026-05-04 12:49 | 40.78357 | -2.58142 | 34962 ft | 426 kts | 182° |
| 2026-05-04 12:50 | 40.72406 | -2.57609 | 34966 ft | 427 kts | 183° |
| 2026-05-04 12:50 | 40.66479 | -2.57077 | 34983 ft | 426 kts | 183° |
| 2026-05-04 12:51 | 40.60585 | -2.56549 | 34980 ft | 426 kts | 183° |
| 2026-05-04 12:51 | 40.54667 | -2.56018 | 34989 ft | 425 kts | 183° |
| 2026-05-04 12:52 | 40.48764 | -2.55491 | 34983 ft | 426 kts | 183° |
| 2026-05-04 12:52 | 40.42843 | -2.54968 | 34987 ft | 425 kts | 184° |
| 2026-05-04 12:53 | 40.36992 | -2.55137 | 34979 ft | 414 kts | 195° |
| 2026-05-04 12:53 | 40.31494 | -2.57115 | 34974 ft | 407 kts | 205° |
| 2026-05-04 12:54 | 40.26256 | -2.59739 | 34980 ft | 406 kts | 207° |
| 2026-05-04 12:54 | 40.21008 | -2.62471 | 34981 ft | 405 kts | 207° |
| 2026-05-04 12:55 | 40.15743 | -2.65174 | 34982 ft | 406 kts | 206° |
| 2026-05-04 12:55 | 40.10469 | -2.67841 | 34976 ft | 407 kts | 206° |
| 2026-05-04 12:56 | 40.05192 | -2.70485 | 34985 ft | 406 kts | 206° |
| 2026-05-04 12:56 | 39.99919 | -2.73117 | 34982 ft | 406 kts | 206° |
| 2026-05-04 12:57 | 39.94630 | -2.75751 | 34983 ft | 406 kts | 206° |
| 2026-05-04 12:57 | 39.89383 | -2.78358 | 34979 ft | 406 kts | 206° |
| 2026-05-04 12:58 | 39.84103 | -2.80976 | 34981 ft | 406 kts | 206° |
| 2026-05-04 12:58 | 39.78794 | -2.83607 | 34979 ft | 406 kts | 206° |
| 2026-05-04 12:59 | 39.73502 | -2.86224 | 34978 ft | 407 kts | 206° |
| 2026-05-04 12:59 | 39.68243 | -2.88819 | 34974 ft | 406 kts | 206° |
| 2026-05-04 13:00 | 39.62951 | -2.91427 | 34977 ft | 406 kts | 206° |
| 2026-05-04 13:00 | 39.57671 | -2.94024 | 34976 ft | 407 kts | 206° |
| 2026-05-04 13:01 | 39.52394 | -2.96623 | 34977 ft | 407 kts | 206° |
| 2026-05-04 13:01 | 39.47096 | -2.99229 | 34977 ft | 406 kts | 206° |
| 2026-05-04 13:02 | 39.41810 | -3.01826 | 34980 ft | 407 kts | 206° |
| 2026-05-04 13:02 | 39.36509 | -3.04422 | 34985 ft | 407 kts | 206° |
| 2026-05-04 13:03 | 39.31210 | -3.07004 | 34989 ft | 407 kts | 206° |
| 2026-05-04 13:03 | 39.25896 | -3.09587 | 34991 ft | 408 kts | 206° |
| 2026-05-04 13:04 | 39.20586 | -3.12164 | 34988 ft | 408 kts | 206° |
| 2026-05-04 13:04 | 39.15275 | -3.14739 | 34984 ft | 407 kts | 206° |
| 2026-05-04 13:05 | 39.09992 | -3.17294 | 34982 ft | 406 kts | 206° |
| 2026-05-04 13:05 | 39.04696 | -3.19854 | 34981 ft | 407 kts | 206° |
| 2026-05-04 13:06 | 38.99382 | -3.22417 | 34984 ft | 407 kts | 207° |
| 2026-05-04 13:06 | 38.94082 | -3.24968 | 34983 ft | 407 kts | 206° |
| 2026-05-04 13:07 | 38.88844 | -3.27486 | 34987 ft | 407 kts | 206° |
| 2026-05-04 13:07 | 38.83549 | -3.30028 | 34988 ft | 406 kts | 207° |
| 2026-05-04 13:08 | 38.78246 | -3.32569 | 34992 ft | 406 kts | 207° |
| 2026-05-04 13:08 | 38.72972 | -3.35095 | 34995 ft | 407 kts | 207° |
| 2026-05-04 13:09 | 38.67662 | -3.37632 | 34996 ft | 407 kts | 207° |
| 2026-05-04 13:09 | 38.62353 | -3.40164 | 35000 ft | 406 kts | 207° |
| 2026-05-04 13:10 | 38.57057 | -3.42687 | 35000 ft | 406 kts | 207° |
| 2026-05-04 13:10 | 38.51766 | -3.45201 | 35005 ft | 406 kts | 207° |
| 2026-05-04 13:11 | 38.46484 | -3.47708 | 35005 ft | 405 kts | 207° |
| 2026-05-04 13:11 | 38.41176 | -3.50227 | 35004 ft | 406 kts | 207° |
| 2026-05-04 13:12 | 38.35925 | -3.52711 | 35008 ft | 405 kts | 207° |
| 2026-05-04 13:12 | 38.30615 | -3.55220 | 35007 ft | 404 kts | 207° |
| 2026-05-04 13:13 | 38.25350 | -3.57703 | 35009 ft | 406 kts | 207° |
| 2026-05-04 13:13 | 38.20094 | -3.60224 | 35006 ft | 403 kts | 210° |
| 2026-05-04 13:14 | 38.15376 | -3.63801 | 35010 ft | 391 kts | 225° |
| 2026-05-04 13:14 | 38.11755 | -3.68894 | 35009 ft | 387 kts | 235° |
| 2026-05-04 13:15 | 38.08679 | -3.74466 | 35011 ft | 385 kts | 238° |
| 2026-05-04 13:15 | 38.05708 | -3.80113 | 35009 ft | 387 kts | 238° |
| 2026-05-04 13:16 | 38.02716 | -3.85765 | 35006 ft | 387 kts | 238° |
| 2026-05-04 13:16 | 37.99709 | -3.91385 | 34584 ft | 380 kts | 238° |
| 2026-05-04 13:16 | 37.98249 | -3.94100 | 34118 ft | 376 kts | 238° |
| 2026-05-04 13:17 | 37.96786 | -3.96813 | 33721 ft | 370 kts | 237° |
| 2026-05-04 13:17 | 37.95343 | -3.99483 | 33277 ft | 366 kts | 238° |
| 2026-05-04 13:17 | 37.93921 | -4.02117 | 32836 ft | 361 kts | 238° |
| 2026-05-04 13:17 | 37.92518 | -4.04711 | 32401 ft | 356 kts | 238° |
| 2026-05-04 13:18 | 37.91135 | -4.07268 | 31970 ft | 351 kts | 238° |
| 2026-05-04 13:18 | 37.89762 | -4.09802 | 31545 ft | 347 kts | 238° |
| 2026-05-04 13:18 | 37.88398 | -4.12318 | 31115 ft | 342 kts | 238° |
| 2026-05-04 13:18 | 37.87067 | -4.14776 | 30704 ft | 338 kts | 238° |
| 2026-05-04 13:19 | 37.85739 | -4.17226 | 30279 ft | 334 kts | 238° |
| 2026-05-04 13:19 | 37.84434 | -4.19630 | 29866 ft | 329 kts | 238° |
| 2026-05-04 13:19 | 37.83147 | -4.21999 | 29452 ft | 325 kts | 238° |
| 2026-05-04 13:19 | 37.81884 | -4.24322 | 29056 ft | 320 kts | 238° |
| 2026-05-04 13:20 | 37.80640 | -4.26609 | 28660 ft | 316 kts | 238° |
| 2026-05-04 13:20 | 37.79390 | -4.28906 | 28274 ft | 325 kts | 238° |
| 2026-05-04 13:20 | 37.78064 | -4.31348 | 27831 ft | 339 kts | 238° |
| 2026-05-04 13:20 | 37.76737 | -4.33782 | 27398 ft | 337 kts | 238° |
| 2026-05-04 13:21 | 37.75415 | -4.36200 | 26973 ft | 332 kts | 238° |
| 2026-05-04 13:21 | 37.74120 | -4.38566 | 26553 ft | 328 kts | 238° |
| 2026-05-04 13:21 | 37.72834 | -4.40912 | 26133 ft | 323 kts | 238° |
| 2026-05-04 13:21 | 37.71565 | -4.43230 | 25724 ft | 318 kts | 238° |
| 2026-05-04 13:22 | 37.70320 | -4.45499 | 25316 ft | 314 kts | 238° |
| 2026-05-04 13:22 | 37.69089 | -4.47745 | 24914 ft | 310 kts | 238° |
| 2026-05-04 13:22 | 37.67869 | -4.49971 | 24506 ft | 305 kts | 238° |
| 2026-05-04 13:22 | 37.66669 | -4.52156 | 24112 ft | 301 kts | 238° |
| 2026-05-04 13:23 | 37.65477 | -4.54327 | 23718 ft | 303 kts | 238° |
| 2026-05-04 13:23 | 37.64242 | -4.56572 | 23304 ft | 320 kts | 237° |
| 2026-05-04 13:23 | 37.62887 | -4.58793 | 22999 ft | 319 kts | 232° |
| 2026-05-04 13:23 | 37.61356 | -4.60831 | 23000 ft | 318 kts | 229° |
| 2026-05-04 13:24 | 37.59771 | -4.62748 | 22994 ft | 322 kts | 227° |
| 2026-05-04 13:24 | 37.58120 | -4.64688 | 22994 ft | 322 kts | 227° |
| 2026-05-04 13:24 | 37.56476 | -4.66617 | 22993 ft | 323 kts | 227° |
| 2026-05-04 13:25 | 37.53196 | -4.70502 | 22995 ft | 323 kts | 227° |
| 2026-05-04 13:25 | 37.51584 | -4.72424 | 22878 ft | 321 kts | 227° |
| 2026-05-04 13:25 | 37.49963 | -4.74360 | 22514 ft | 316 kts | 227° |
| 2026-05-04 13:25 | 37.48378 | -4.76252 | 22109 ft | 312 kts | 227° |
| 2026-05-04 13:26 | 37.46827 | -4.78105 | 21698 ft | 308 kts | 227° |
| 2026-05-04 13:26 | 37.45275 | -4.79960 | 21290 ft | 305 kts | 227° |
| 2026-05-04 13:26 | 37.43741 | -4.81793 | 20888 ft | 301 kts | 227° |
| 2026-05-04 13:26 | 37.42234 | -4.83591 | 20483 ft | 298 kts | 227° |
| 2026-05-04 13:27 | 37.40741 | -4.85374 | 20085 ft | 295 kts | 227° |
| 2026-05-04 13:27 | 37.39266 | -4.87130 | 19691 ft | 292 kts | 227° |
| 2026-05-04 13:27 | 37.37799 | -4.88879 | 19303 ft | 297 kts | 227° |
| 2026-05-04 13:27 | 37.36259 | -4.90723 | 18884 ft | 311 kts | 227° |
| 2026-05-04 13:28 | 37.34687 | -4.92598 | 18471 ft | 309 kts | 227° |
| 2026-05-04 13:28 | 37.33148 | -4.94426 | 18061 ft | 306 kts | 227° |
| 2026-05-04 13:28 | 37.31612 | -4.96250 | 17647 ft | 302 kts | 227° |
| 2026-05-04 13:28 | 37.30098 | -4.98047 | 17239 ft | 299 kts | 227° |
| 2026-05-04 13:29 | 37.28595 | -4.99830 | 16831 ft | 296 kts | 226° |
| 2026-05-04 13:29 | 37.27007 | -5.01453 | 16546 ft | 292 kts | 216° |
| 2026-05-04 13:29 | 37.25141 | -5.02407 | 16386 ft | 291 kts | 196° |
| 2026-05-04 13:29 | 37.23070 | -5.02551 | 15961 ft | 297 kts | 185° |
| 2026-05-04 13:30 | 37.21024 | -5.02464 | 15559 ft | 296 kts | 184° |
| 2026-05-04 13:30 | 37.18959 | -5.02377 | 15170 ft | 294 kts | 184° |
| 2026-05-04 13:30 | 37.16911 | -5.02319 | 14782 ft | 292 kts | 185° |
| 2026-05-04 13:30 | 37.14893 | -5.02281 | 14401 ft | 291 kts | 185° |
| 2026-05-04 13:31 | 37.12868 | -5.02252 | 14020 ft | 289 kts | 185° |
| 2026-05-04 13:31 | 37.10854 | -5.02226 | 13659 ft | 287 kts | 185° |
| 2026-05-04 13:31 | 37.08897 | -5.02197 | 13517 ft | 276 kts | 185° |
| 2026-05-04 13:31 | 37.07019 | -5.02166 | 13424 ft | 265 kts | 185° |
| 2026-05-04 13:32 | 37.05190 | -5.02138 | 13179 ft | 261 kts | 186° |
| 2026-05-04 13:32 | 37.03375 | -5.02117 | 12808 ft | 261 kts | 185° |
| 2026-05-04 13:32 | 37.01541 | -5.02096 | 12484 ft | 260 kts | 185° |
| 2026-05-04 13:32 | 36.99740 | -5.02072 | 12150 ft | 259 kts | 185° |
| 2026-05-04 13:33 | 36.97932 | -5.02045 | 11823 ft | 259 kts | 184° |
| 2026-05-04 13:33 | 36.96124 | -5.01799 | 11469 ft | 264 kts | 170° |
| 2026-05-04 13:33 | 36.94506 | -5.00706 | 11263 ft | 269 kts | 139° |
| 2026-05-04 13:33 | 36.93472 | -4.98797 | 11050 ft | 270 kts | 114° |
| 2026-05-04 13:34 | 36.93049 | -4.96499 | 10693 ft | 274 kts | 95° |
| 2026-05-04 13:34 | 36.93151 | -4.94123 | 10351 ft | 275 kts | 72° |
| 2026-05-04 13:34 | 36.94082 | -4.92117 | 10070 ft | 268 kts | 40° |
| 2026-05-04 13:34 | 36.95650 | -4.90889 | 10030 ft | 266 kts | 17° |
| 2026-05-04 13:35 | 36.97434 | -4.90303 | 10012 ft | 267 kts | 1° |
| 2026-05-04 13:35 | 37.01066 | -4.90327 | 10012 ft | 251 kts | 352° |
| 2026-05-04 13:35 | 37.02797 | -4.90422 | 10021 ft | 250 kts | 353° |
| 2026-05-04 13:36 | 37.04548 | -4.90480 | 10018 ft | 251 kts | 354° |
| 2026-05-04 13:36 | 37.06295 | -4.90506 | 10017 ft | 251 kts | 355° |
| 2026-05-04 13:36 | 37.08042 | -4.90524 | 10015 ft | 250 kts | 355° |
| 2026-05-04 13:36 | 37.09795 | -4.90544 | 10015 ft | 251 kts | 355° |
| 2026-05-04 13:37 | 37.11525 | -4.90564 | 10012 ft | 250 kts | 354° |
| 2026-05-04 13:37 | 37.13295 | -4.90587 | 10017 ft | 251 kts | 355° |
| 2026-05-04 13:37 | 37.15039 | -4.90610 | 10011 ft | 251 kts | 354° |
| 2026-05-04 13:37 | 37.16194 | -4.90593 | 10012 ft | 252 kts | 359° |
| 2026-05-04 13:38 | 37.18463 | -4.89762 | 10004 ft | 262 kts | 35° |
| 2026-05-04 13:38 | 37.19603 | -4.88002 | 9990 ft | 264 kts | 68° |
| 2026-05-04 13:38 | 37.19953 | -4.85781 | 9809 ft | 257 kts | 90° |
| 2026-05-04 13:38 | 37.19785 | -4.83575 | 9506 ft | 253 kts | 112° |
| 2026-05-04 13:39 | 37.18891 | -4.81750 | 9245 ft | 243 kts | 140° |
| 2026-05-04 13:39 | 37.17530 | -4.80558 | 8950 ft | 236 kts | 161° |
| 2026-05-04 13:39 | 37.15974 | -4.80084 | 8668 ft | 228 kts | 182° |
| 2026-05-04 13:39 | 37.14399 | -4.80094 | 8375 ft | 226 kts | 186° |
| 2026-05-04 13:40 | 37.12825 | -4.80141 | 8090 ft | 225 kts | 184° |
| 2026-05-04 13:40 | 37.11270 | -4.80147 | 7823 ft | 224 kts | 183° |
| 2026-05-04 13:40 | 37.09707 | -4.80130 | 7559 ft | 223 kts | 182° |
| 2026-05-04 13:40 | 37.08120 | -4.80110 | 7288 ft | 232 kts | 182° |
| 2026-05-04 13:41 | 37.06507 | -4.80093 | 7028 ft | 233 kts | 182° |
| 2026-05-04 13:41 | 37.04881 | -4.80073 | 7016 ft | 230 kts | 182° |
| 2026-05-04 13:41 | 37.03270 | -4.80055 | 7015 ft | 233 kts | 182° |
| 2026-05-04 13:42 | 37.00030 | -4.80021 | 7021 ft | 233 kts | 182° |
| 2026-05-04 13:42 | 36.98397 | -4.80003 | 7014 ft | 233 kts | 182° |
| 2026-05-04 13:42 | 36.96778 | -4.79986 | 7017 ft | 233 kts | 182° |
| 2026-05-04 13:42 | 36.95144 | -4.79967 | 7019 ft | 233 kts | 182° |
| 2026-05-04 13:43 | 36.93516 | -4.79924 | 6901 ft | 237 kts | 178° |
| 2026-05-04 13:43 | 36.91896 | -4.79527 | 6584 ft | 240 kts | 165° |
| 2026-05-04 13:43 | 36.90324 | -4.78809 | 6290 ft | 240 kts | 161° |
| 2026-05-04 13:43 | 36.88759 | -4.78070 | 6040 ft | 238 kts | 162° |
| 2026-05-04 13:44 | 36.87257 | -4.77174 | 5822 ft | 239 kts | 148° |
| 2026-05-04 13:44 | 36.85985 | -4.75850 | 5502 ft | 242 kts | 136° |
| 2026-05-04 13:44 | 36.84832 | -4.74270 | 5075 ft | 249 kts | 131° |
| 2026-05-04 13:44 | 36.83705 | -4.72615 | 4611 ft | 253 kts | 132° |
| 2026-05-04 13:45 | 36.82567 | -4.70990 | 4432 ft | 244 kts | 133° |
| 2026-05-04 13:45 | 36.81438 | -4.69417 | 4125 ft | 241 kts | 133° |
| 2026-05-04 13:45 | 36.80334 | -4.67879 | 3763 ft | 240 kts | 133° |
| 2026-05-04 13:45 | 36.79217 | -4.66307 | 3409 ft | 238 kts | 133° |
| 2026-05-04 13:46 | 36.78142 | -4.64796 | 3025 ft | 229 kts | 133° |
| 2026-05-04 13:46 | 36.77135 | -4.63382 | 2784 ft | 204 kts | 133° |
| 2026-05-04 13:46 | 36.76223 | -4.62108 | 2450 ft | 192 kts | 132° |
| 2026-05-04 13:46 | 36.75377 | -4.60928 | 2211 ft | 180 kts | 133° |
| 2026-05-04 13:47 | 36.74567 | -4.59794 | 1930 ft | 169 kts | 133° |
| 2026-05-04 13:47 | 36.73779 | -4.58688 | 1729 ft | 170 kts | 133° |
| 2026-05-04 13:47 | 36.72990 | -4.57588 | 1472 ft | 168 kts | 133° |
| 2026-05-04 13:47 | 36.72215 | -4.56501 | 1247 ft | 166 kts | 132° |
| 2026-05-04 13:48 | 36.71444 | -4.55415 | 1002 ft | 164 kts | 134° |
| 2026-05-04 13:48 | 36.70681 | -4.54366 | 777 ft | 163 kts | 133° |
| 2026-05-04 13:48 | 36.69936 | -4.53317 | 524 ft | 161 kts | 133° |
| 2026-05-04 13:48 | 36.69197 | -4.52292 | 320 ft | 157 kts | 133° |
| 2026-05-04 13:49 | 36.68474 | -4.51281 | 86 ft | 152 kts | 133° |
| 2026-05-04 13:49 | 36.67842 | -4.50402 | 54 ft | 110 kts | 131° |
| 2026-05-04 13:49 | 36.67473 | -4.49887 | 48 ft | 56 kts | 131° |
| 2026-05-04 13:49 | 36.67315 | -4.49611 | 43 ft | 23 kts | 108° |
| 2026-05-04 13:50 | 36.67294 | -4.49517 | 43 ft | 0 kts | 103° |
| 2026-05-04 13:50 | 36.67294 | -4.49516 | 43 ft | 0 kts | 104° |
| 2026-05-04 13:50 | 36.67294 | -4.49515 | 43 ft | 0 kts | 104° |
| 2026-05-04 13:51 | 36.67294 | -4.49514 | 43 ft | 0 kts | 104° |
| 2026-05-04 13:51 | 36.67287 | -4.49485 | 43 ft | 7 kts | 102° |
| 2026-05-04 13:51 | 36.67313 | -4.49418 | 43 ft | 11 kts | 20° |
| 2026-05-04 13:51 | 36.67388 | -4.49469 | 42 ft | 11 kts | 311° |
| 2026-05-04 13:52 | 36.67465 | -4.49474 | 41 ft | 5 kts | 2° |
| 2026-05-04 13:52 | 36.67516 | -4.49469 | 42 ft | 9 kts | 25° |
| 2026-05-04 13:52 | 36.67559 | -4.49417 | 44 ft | 5 kts | 50° |
| 2026-05-04 13:53 | 36.67566 | -4.49396 | 45 ft | 2 kts | 83° |
| 2026-05-04 13:53 | 36.67559 | -4.49356 | 46 ft | 6 kts | 112° |
| 2026-05-04 13:53 | 36.67548 | -4.49325 | 47 ft | 0 kts | 114° |
| 2026-05-04 13:54 | 36.67545 | -4.49320 | 47 ft | 0 kts | 114° |